Terminal Aerodrome Forecast
Issued by NWS Upton, NY

Home | Current Version | Previous Version | Text Only | Print | Product List | Glossary On
Versions: 1 2 3 4 5 6 7 8 9 10 11 12 13 14 15 16 17 18 19 20 21 22 23 24 25 26 27 28 29 30 31 32 33 34 35 36 37
000
FTUS41 KOKX 262000 AAB
TAFJFK
TAF AMD
KJFK 262032Z 2621/2724 03020G26KT 3/4SM -SN BR BKN008 OVC019
      TEMPO 2621/2623 3SM -SN BR SCT008 OVC019
     FM262300 03022G30KT 1/2SM SN FZFG VV005
     FM270300 01025G35KT 1/4SM +SN FZFG VV003
     FM271500 34024G35KT 1/2SM SN FZFG VV008
     FM272200 34026G38KT 2SM -SN BLSN OVC020=

USA.gov is the U.S. government's official web portal to all federal, state and local government web resources and services.